Map

Track Data

SID SEASON NUMBER BASIN SUBBASIN NAME ISO_TIME NATURE LAT LON WMO_WIND WMO_PRES WMO_AGENCY TRACK_TYPE DIST2LAND LANDFALL IFLAG USA_AGENCY USA_ATCF_ID USA_LAT USA_LON USA_RECORD USA_STATUS USA_WIND USA_PRES USA_SSHS USA_R34_NE USA_R34_SE USA_R34_SW USA_R34_NW USA_R50_NE USA_R50_SE USA_R50_SW USA_R50_NW USA_R64_NE USA_R64_SE USA_R64_SW USA_R64_NW USA_POCI USA_ROCI USA_RMW USA_EYE TOKYO_LAT TOKYO_LON TOKYO_GRADE TOKYO_WIND TOKYO_PRES TOKYO_R50_DIR TOKYO_R50_LONG TOKYO_R50_SHORT TOKYO_R30_DIR TOKYO_R30_LONG TOKYO_R30_SHORT TOKYO_LAND CMA_LAT CMA_LON CMA_CAT CMA_WIND CMA_PRES HKO_LAT HKO_LON HKO_CAT HKO_WIND HKO_PRES NEWDELHI_LAT NEWDELHI_LON NEWDELHI_GRADE NEWDELHI_WIND NEWDELHI_PRES NEWDELHI_CI NEWDELHI_DP NEWDELHI_POCI REUNION_LAT REUNION_LON REUNION_TYPE REUNION_WIND REUNION_PRES REUNION_TNUM REUNION_CI REUNION_RMW REUNION_R34_NE REUNION_R34_SE REUNION_R34_SW REUNION_R34_NW REUNION_R50_NE REUNION_R50_SE REUNION_R50_SW REUNION_R50_NW REUNION_R64_NE REUNION_R64_SE REUNION_R64_SW REUNION_R64_NW BOM_LAT BOM_LON BOM_TYPE BOM_WIND BOM_PRES BOM_TNUM BOM_CI BOM_RMW BOM_R34_NE BOM_R34_SE BOM_R34_SW BOM_R34_NW BOM_R50_NE BOM_R50_SE BOM_R50_SW BOM_R50_NW BOM_R64_NE BOM_R64_SE BOM_R64_SW BOM_R64_NW BOM_ROCI BOM_POCI BOM_EYE BOM_POS_METHOD BOM_PRES_METHOD NADI_LAT NADI_LON NADI_CAT NADI_WIND NADI_PRES WELLINGTON_LAT WELLINGTON_LON WELLINGTON_WIND WELLINGTON_PRES DS824_LAT DS824_LON DS824_STAGE DS824_WIND DS824_PRES TD9636_LAT TD9636_LON TD9636_STAGE TD9636_WIND TD9636_PRES TD9635_LAT TD9635_LON TD9635_WIND TD9635_PRES TD9635_ROCI NEUMANN_LAT NEUMANN_LON NEUMANN_CLASS NEUMANN_WIND NEUMANN_PRES MLC_LAT MLC_LON MLC_CLASS MLC_WIND MLC_PRES USA_GUST BOM_GUST BOM_GUST_PER REUNION_GUST REUNION_GUST_PER USA_SEAHGT USA_SEARAD_NE USA_SEARAD_SE USA_SEARAD_SW USA_SEARAD_NW STORM_SPEED STORM_DIR
1978095S11120 1978 30 SI WA BRENDA 1978-04-05 00:00:00 TS -11.0000 120.400 main 79 79 O_________O___ jtwc_sh SH311978 -11.0000 120.400 25 -1 -11.0000 120.400 1 25 4 230
1978095S11120 1978 30 SI WA BRENDA 1978-04-05 01:00:00 TS -11.0441 120.344 20 1007 bom main 81 81 P_____O___P___ SH311978 -11.0533 120.337 25 -1 -11.0000 120.400 20 20 1007 1.00000 -11.0478 120.331 1 25 5 231
1978095S11120 1978 30 SI WA BRENDA 1978-04-05 03:00:00 TS -11.1485 120.216 main 95 95 P_____P___P___ SH311978 -11.1575 120.208 25 -1 -11.1309 120.279 20 20 1006 -11.1422 120.192 1 25 5 231
1978095S11120 1978 30 SI WA BRENDA 1978-04-05 04:00:00 TS -11.2009 120.148 20 1006 bom main 109 109 P_____O___P___ SH311978 -11.2074 120.141 25 -1 -11.2000 120.200 20 20 1006 1.00000 -11.1884 120.122 1 25 5 233
1978095S11120 1978 30 SI WA BRENDA 1978-04-05 06:00:00 TS -11.3042 120.006 main 124 124 O_____P__OP_O_ jtwc_sh SH311978 -11.3000 120.000 25 -1 -11.3412 119.998 20 23 1005 -11.3000 120.000 TC 20 1005 -11.2775 119.978 1 25 -11.3000 120.200 TC 20 1005 5 235
1978095S11120 1978 30 SI WA BRENDA 1978-04-05 07:00:00 TS -11.3482 119.935 25 1005 bom main 127 127 P_____O__PP_P_ SH311978 -11.3417 119.925 25 -1 -11.4000 119.900 20 25 1005 1.50000 -11.3377 119.937 TC 20 1005 -11.3199 119.903 1 25 -11.3377 120.110 TC 20 1005 5 241
1978095S11120 1978 30 SI WA BRENDA 1978-04-05 09:00:00 TS -11.4226 119.790 main 141 141 P_____P__PP_P_ SH311978 -11.4150 119.765 25 -1 -11.4800 119.761 20 25 1005 -11.4100 119.808 TC 20 1005 -11.3990 119.749 1 25 -11.4101 119.935 TC 20 1005 5 244
1978095S11120 1978 30 SI WA BRENDA 1978-04-05 10:00:00 TS -11.4525 119.720 25 1005 bom main 155 155 P_____O__PP_P_ SH311978 -11.4466 119.680 25 -1 -11.5000 119.700 20 25 1005 1.50000 -11.4432 119.741 TC 20 1005 -11.4353 119.669 1 25 -11.4433 119.852 TC 20 1005 5 251
1978095S11120 1978 30 SI WA BRENDA 1978-04-05 12:00:00 TS -11.4996 119.562 main 159 159 O_____P__OO_O_ jtwc_sh SH311978 -11.5000 119.500 25 -1 -11.4975 119.575 20 25 1005 -11.5000 119.600 TC 20 1005 -11.5000 119.500 1 25 -11.5000 119.700 TC 20 1005 5 254
1978095S11120 1978 30 SI WA BRENDA 1978-04-05 13:00:00 TS -11.5196 119.479 25 1005 bom main 164 164 P_____O__PP_P_ SH311978 -11.5224 119.403 25 -1 -11.5000 119.500 20 25 1005 1.50000 -11.5224 119.525 TC 20 1004 -11.5280 119.411 1 25 -11.5223 119.633 TC 20 1004 5 256
1978095S11120 1978 30 SI WA BRENDA 1978-04-05 15:00:00 TS -11.5625 119.300 main 185 185 P_____P__PP_P_ SH311978 -11.5575 119.200 25 -1 -11.5691 119.298 20 25 1005 -11.5575 119.365 TC 22 1004 -11.5757 119.227 1 25 -11.5574 119.507 TC 22 1004 5 257
1978095S11120 1978 30 SI WA BRENDA 1978-04-05 16:00:00 TS -11.5807 119.209 25 1005 bom main 191 191 P_____O__PP_P_ SH311978 -11.5721 119.098 25 -1 -11.6000 119.200 20 25 1005 1.50000 -11.5721 119.280 TC 23 1003 -11.5959 119.133 1 25 -11.5720 119.444 TC 23 1003 5 261
1978095S11120 1978 30 SI WA BRENDA 1978-04-05 18:00:00 TS -11.6046 119.035 main 204 204 O_____P__OP_O_ jtwc_sh SH311978 -11.6000 118.900 25 -1 -11.5975 119.069 20 25 1003 -11.6000 119.100 TC 25 1003 -11.6301 118.942 1 25 -11.6000 119.300 TC 25 1003 5 261
1978095S11120 1978 30 SI WA BRENDA 1978-04-05 19:00:00 TS -11.6194 118.946 25 1003 bom main 208 208 P_____O__PP_P_ SH311978 -11.6193 118.808 25 -1 -11.6000 119.000 20 25 1003 2.00000 -11.6167 119.000 TC 25 1003 -11.6446 118.848 1 25 -11.6167 119.209 TC 25 1003 6 259
1978095S11120 1978 30 SI WA BRENDA 1978-04-05 21:00:00 TS -11.6589 118.756 main 222 222 P_____P__PP_P_ SH311978 -11.6575 118.635 25 -1 -11.6691 118.805 20 25 1003 -11.6500 118.793 TC 25 1003 -11.6694 118.662 1 25 -11.6500 119.008 TC 25 1003 6 258
1978095S11120 1978 30 SI WA BRENDA 1978-04-05 22:00:00 TS -11.6771 118.662 25 1003 bom main 226 226 P_____O__PP_P_ SH311978 -11.6745 118.553 25 -1 -11.7000 118.700 20 25 1003 2.00000 -11.6667 118.690 TC 25 1003 -11.6803 118.571 1 25 -11.6667 118.903 TC 25 1003 5 261
1978095S11120 1978 30 SI WA BRENDA 1978-04-06 00:00:00 TS -11.7009 118.482 main 233 233 O_____P__OO_O_ jtwc_sh SH311978 -11.7000 118.400 25 -1 -11.7054 118.492 20 25 1003 -11.7000 118.500 TC 25 1003 -11.7000 118.400 1 25 -11.7000 118.700 TC 25 1003 5 263
1978095S11120 1978 30 SI WA BRENDA 1978-04-06 01:00:00 TS -11.7092 118.402 25 1003 bom main 236 236 P_____O__PP_P_ SH311978 -11.7031 118.328 25 -1 -11.7000 118.400 20 25 1003 2.00000 2.00000 -11.7193 118.422 TC 25 1002 -11.7104 118.324 1 25 -11.7193 118.608 TC 25 1002 4 264
1978095S11120 1978 30 SI WA BRENDA 1978-04-06 03:00:00 TS -11.7225 118.258 main 240 240 P_____P__PP_P_ SH311978 -11.7000 118.192 25 -1 -11.6921 118.261 20 25 1002 -11.7574 118.285 TC 27 1002 -11.7280 118.182 1 26 -11.7575 118.435 TC 25 1002 4 264
1978095S11120 1978 30 SI WA BRENDA 1978-04-06 04:00:00 TS -11.7300 118.191 25 1002 bom main 244 244 P_____O__PP_P_ SH311978 -11.6975 118.128 25 -1 -11.7000 118.200 20 25 1002 2.00000 -11.7745 118.222 TC 28 1001 -11.7356 118.115 1 26 -11.7745 118.353 TC 25 1001 4 261
1978095S11120 1978 30 SI WA BRENDA 1978-04-06 06:00:00 TS -11.7532 118.059 main 259 259 O_____P__OP_O_ jtwc_sh SH311978 -11.7000 118.000 25 -1 -11.7691 118.067 20 25 1001 -11.8000 118.100 TC 30 1001 -11.7498 117.985 1 27 -11.8000 118.200 TC 25 1001 4 260
1978095S11120 1978 30 SI WA BRENDA 1978-04-06 07:00:00 TS -11.7641 117.991 25 1001 bom main 264 264 P_____O__PP_P_ SH311978 -11.7109 117.933 25 -1 -11.8000 118.000 20 25 1001 2.00000 -11.8031 118.033 TC 30 1000 -11.7568 117.921 1 27 -11.8031 118.128 TC 25 1000 4 263
1978095S11120 1978 30 SI WA BRENDA 1978-04-06 09:00:00 TS -11.7770 117.859 main 269 269 P_____P__PP_P_ SH311978 -11.7425 117.800 27 -1 -11.8054 117.867 20 25 1001 -11.8000 117.900 TC 30 1000 -11.7717 117.795 1 28 -11.8000 117.992 TC 27 1000 4 264
1978095S11120 1978 30 SI WA BRENDA 1978-04-06 10:00:00 TS -11.7829 117.793 25 1001 bom main 274 274 P_____O__PP_P_ SH311978 -11.7612 117.733 28 -1 -11.8000 117.800 20 25 1001 2.00000 -11.7975 117.833 TC 30 1000 -11.7802 117.731 1 29 -11.7975 117.928 TC 28 1000 4 264
1978095S11120 1978 30 SI WA BRENDA 1978-04-06 12:00:00 TS -11.7987 117.661 main 280 280 O_____P__OO_O_ jtwc_sh SH311978 -11.8000 117.600 30 -1 -11.7921 117.667 20 25 1000 -11.8000 117.700 TC 30 1000 -11.8000 117.600 1 30 -11.8000 117.800 TC 30 1000 4 262
1978095S11120 1978 30 SI WA BRENDA 1978-04-06 13:00:00 TS -11.8112 117.595 25 1000 bom main 286 286 P_____O__PP_P_ SH311978 -11.8167 117.536 30 -1 -11.8000 117.600 20 25 1000 2.00000 -11.8109 117.636 TC 30 999 -11.8121 117.528 1 30 -11.8109 117.733 TC 30 999 4 256
1978095S11120 1978 30 SI WA BRENDA 1978-04-06 15:00:00 TS -11.8488 117.462 main 293 293 P_____P__PP_P_ SH311978 -11.8500 117.407 30 -1 -11.8691 117.467 20 28 999 -11.8425 117.508 TC 32 999 -11.8387 117.382 1 31 -11.8425 117.600 TC 32 999 4 254
1978095S11120 1978 30 SI WA BRENDA 1978-04-06 16:00:00 TS -11.8682 117.394 30 999 bom main 308 308 P_____O__PP_P_ SH311978 -11.8666 117.341 30 -1 -11.9000 117.400 20 30 999 2.50000 -11.8612 117.441 TC 33 998 -11.8533 117.308 1 31 -11.8612 117.533 TC 33 998 4 256
1978095S11120 1978 30 SI WA BRENDA 1978-04-06 18:00:00 TS -11.8971 117.254 main 314 313 O_____P__OP_O_ jtwc_sh SH311978 -11.9000 117.200 30 -1 -11.8975 117.267 20 30 998 -11.9000 117.300 TC 35 998 -11.8850 117.157 1 32 -11.9000 117.400 TC 35 998 4 258
1978095S11120 1978 30 SI WA BRENDA 1978-04-06 19:00:00 TS -11.9115 117.179 30 998 bom main 313 313 P_____O__PP_P_ SH311978 -11.9167 117.120 30 -1 -11.9000 117.200 20 30 998 2.50000 -11.9167 117.220 TC 35 997 -11.9020 117.082 1 32 -11.9167 117.336 TC 35 997 5 256
1978095S11120 1978 30 SI WA BRENDA 1978-04-06 21:00:00 TS -11.9513 117.027 main 324 324 P_____P__PP_P_ SH311978 -11.9500 116.950 32 -1 -11.9691 117.075 20 33 996 -11.9500 117.050 TC 37 996 -11.9387 116.929 1 33 -11.9500 117.207 TC 35 997 5 255
1978095S11120 1978 30 SI WA BRENDA 1978-04-06 22:00:00 TS -11.9708 116.948 35 996 bom main 325 325 P_____O__PP_P_ SH311978 -11.9667 116.864 33 -1 -12.0000 117.000 30 35 996 3.00000 -11.9667 116.964 TC 38 996 -11.9583 116.853 1 34 -11.9666 117.141 TC 35 996 5 258
1978095S11120 1978 30 SI WA BRENDA 1978-04-07 00:00:00 TS -11.9996 116.783 main 325 325 O_____P__OO_O_ jtwc_sh SH311978 -12.0000 116.700 35 0 -11.9975 116.798 30 38 995 -12.0000 116.800 TC 40 995 -12.0000 116.700 2 35 -12.0000 117.000 TC 35 996 5 260
1978095S11120 1978 30 SI WA BRENDA 1978-04-07 01:00:00 TS -12.0130 116.706 40 995 bom main 326 326 P_____O__PP_P_ SH311978 -12.0140 116.630 35 0 -12.0000 116.700 30 40 995 3.00000 3.00000 -12.0140 116.730 TC 40 994 -12.0192 116.625 2 35 -12.0167 116.920 TC 35 995 4 256
1978095S11120 1978 30 SI WA BRENDA 1978-04-07 03:00:00 TS -12.0510 116.564 main 338 338 P_____P__PP_P_ SH311978 -12.0425 116.500 35 0 -12.0691 116.561 30 40 994 -12.0425 116.600 TC 40 994 -12.0596 116.475 2 36 -12.0500 116.750 TC 37 994 4 254
1978095S11120 1978 30 SI WA BRENDA 1978-04-07 04:00:00 TS -12.0707 116.495 40 994 bom main 340 340 P_____O__PP_P_ SH311978 -12.0587 116.436 35 0 -12.1000 116.500 30 40 994 3.00000 -12.0587 116.536 TC 40 993 -12.0812 116.400 2 36 -12.0667 116.664 TC 38 994 4 256
1978095S11120 1978 30 SI WA BRENDA 1978-04-07 06:00:00 TS -12.1042 116.353 main 342 342 O_____P__OP_O_ jtwc_sh SH311978 -12.1000 116.300 35 0 -12.0975 116.367 30 40 993 -12.1000 116.400 TC 40 993 -12.1274 116.250 2 37 -12.1000 116.500 TC 40 993 4 256
1978095S11120 1978 30 SI WA BRENDA 1978-04-07 07:00:00 TS -12.1240 116.278 40 993 bom main 344 344 P_____O__PP_P_ SH311978 -12.1276 116.220 35 0 -12.1000 116.300 30 40 993 3.00000 -12.1250 116.322 TC 40 992 -12.1524 116.175 2 37 -12.1114 116.430 TC 40 992 5 251
1978095S11120 1978 30 SI WA BRENDA 1978-04-07 09:00:00 TS -12.1788 116.126 main 359 359 P_____P__PP_P_ SH311978 -12.1925 116.050 37 0 -12.1612 116.175 30 43 992 -12.1850 116.157 TC 42 992 -12.2065 116.025 2 38 -12.1350 116.300 TC 42 992 5 249
1978095S11120 1978 30 SI WA BRENDA 1978-04-07 10:00:00 TS -12.2104 116.048 45 992 bom main 361 361 P_____O__PP_P_ SH311978 -12.2279 115.964 38 0 -12.2000 116.100 30 45 992 3.00000 -12.2200 116.072 TC 43 992 -12.2359 115.950 2 39 -12.1508 116.236 TC 43 992 5 248
1978095S11120 1978 30 SI WA BRENDA 1978-04-07 12:00:00 TS -12.2765 115.884 main 373 373 O_____P__OO_O_ jtwc_sh SH311978 -12.3000 115.800 40 0 -12.2588 115.905 30 45 992 -12.3000 115.900 TC 45 992 -12.3000 115.800 2 40 -12.2000 116.100 TC 45 992 5 247
1978095S11120 1978 30 SI WA BRENDA 1978-04-07 13:00:00 TS -12.3137 115.804 45 992 bom main 375 375 P_____O__PP_P_ SH311978 -12.3307 115.730 40 0 -12.3000 115.800 30 45 992 3.00000 -12.3469 115.814 TC 45 991 -12.3325 115.725 2 40 -12.2412 116.022 TC 45 991 5 242
1978095S11120 1978 30 SI WA BRENDA 1978-04-07 15:00:00 TS -12.4026 115.645 main 390 390 P_____P__PP_P_ SH311978 -12.3925 115.600 42 0 -12.4358 115.592 30 45 991 -12.4500 115.643 TC 45 991 -12.4024 115.575 2 41 -12.3425 115.858 TC 45 991 5 240
1978095S11120 1978 30 SI WA BRENDA 1978-04-07 16:00:00 TS -12.4484 115.567 45 991 bom main 390 390 P_____O__PP_P_ SH311978 -12.4254 115.536 43 0 -12.5000 115.500 30 45 991 3.00000 -12.5025 115.559 TC 45 990 -12.4399 115.500 2 41 -12.3970 115.772 TC 45 990 5 240
1978095S11120 1978 30 SI WA BRENDA 1978-04-07 18:00:00 TS -12.5320 115.419 main 406 406 O_____P__OP_O_ jtwc_sh SH311978 -12.5000 115.400 45 0 -12.5721 115.361 30 48 990 -12.6000 115.400 TC 45 990 -12.5199 115.350 2 42 -12.5000 115.600 TC 45 990 5 241
1978095S11120 1978 30 SI WA BRENDA 1978-04-07 19:00:00 TS -12.5711 115.343 50 990 bom main 420 420 P_____O__PP_P_ SH311978 -12.5443 115.320 45 0 -12.6000 115.300 30 50 990 3.50000 -12.6390 115.328 TC 45 990 -12.5624 115.275 2 42 -12.5364 115.514 TC 45 990 5 242
1978095S11120 1978 30 SI WA BRENDA 1978-04-07 21:00:00 TS -12.6519 115.188 main 434 434 P_____P__PP_P_ SH311978 -12.6425 115.150 45 0 -12.6667 115.167 30 50 990 -12.7075 115.192 TC 45 990 -12.6524 115.125 2 43 -12.6000 115.342 TC 45 990 5 242
1978095S11120 1978 30 SI WA BRENDA 1978-04-07 22:00:00 TS -12.6931 115.111 50 990 bom main 436 436 P_____O__PP_P_ SH311978 -12.6946 115.064 45 0 -12.7000 115.100 30 50 990 3.50000 -12.7387 115.128 TC 45 990 -12.7000 115.050 2 44 -12.6309 115.259 TC 45 990 5 240
1978095S11120 1978 30 SI WA BRENDA 1978-04-08 00:00:00 TS -12.7778 114.961 main 448 448 O_____P__OO_O_ jtwc_sh SH311978 -12.8000 114.900 45 0 -12.7667 114.967 30 50 990 -12.8000 115.000 TC 45 990 -12.8000 114.900 2 45 -12.7000 115.100 TC 45 990 5 240
1978095S11120 1978 30 SI WA BRENDA 1978-04-08 01:00:00 TS -12.8189 114.890 50 990 bom main 448 448 P_____O__PP_P_ SH311978 -12.8473 114.830 45 0 -12.8000 114.900 30 50 990 3.50000 3.50000 -12.8281 114.936 TC 45 990 -12.8492 114.819 2 45 -12.7416 115.028 TC 45 990 5 238
1978095S11120 1978 30 SI WA BRENDA 1978-04-08 03:00:00 TS -12.9032 114.753 main 459 459 P_____P__PP_P_ SH311978 -12.9424 114.700 45 0 -12.8619 114.762 30 50 990 -12.8850 114.807 TC 45 990 -12.9525 114.655 2 45 -12.8350 114.892 TC 45 990 5 237
1978095S11120 1978 30 SI WA BRENDA 1978-04-08 04:00:00 TS -12.9492 114.686 50 990 bom main 459 459 P_____O__PP_P_ SH311978 -12.9921 114.636 45 0 -12.9000 114.700 30 50 990 3.50000 -12.9175 114.741 TC 45 990 -13.0067 114.573 2 45 -12.8866 114.828 TC 45 990 5 232
1978095S11120 1978 30 SI WA BRENDA 1978-04-08 06:00:00 TS -13.0533 114.552 50 bom main 481 481 O_____I__IP_O_ jtwc_sh SH311978 -13.1000 114.500 45 0 -13.0000 114.600 30 50 990 3.50000 -13.0000 114.600 TC 45 990 -13.1201 114.413 2 45 -13.0000 114.700 TC 45 990 5 231
1978095S11120 1978 30 SI WA BRENDA 1978-04-08 07:00:00 TS -13.1187 114.470 50 990 bom main 481 481 P_____O__PP_P_ SH311978 -13.1583 114.417 45 0 -13.1000 114.500 30 50 990 3.50000 -13.0553 114.520 TC 45 990 -13.1792 114.335 2 45 -13.0609 114.633 TC 45 990 6 231
1978095S11120 1978 30 SI WA BRENDA 1978-04-08 09:00:00 TS -13.2487 114.303 main 493 493 P_____P__PP_P_ SH311978 -13.2850 114.243 45 0 -13.2418 114.293 30 50 990 -13.1850 114.350 TC 45 990 -13.3026 114.189 2 45 -13.1925 114.500 TC 45 990 6 231
1978095S11120 1978 30 SI WA BRENDA 1978-04-08 10:00:00 TS -13.3151 114.222 50 990 bom main 505 505 P_____O__PP_P_ SH311978 -13.3534 114.156 45 0 -13.3000 114.200 30 50 990 3.50000 -13.2558 114.264 TC 45 990 -13.3667 114.121 2 45 -13.2612 114.433 TC 45 990 6 227
1978095S11120 1978 30 SI WA BRENDA 1978-04-08 12:00:00 TS -13.4556 114.077 main 529 529 O_____P__OO_O_ jtwc_sh SH311978 -13.5000 114.000 45 0 -13.4333 114.061 30 50 990 -13.4000 114.100 TC 45 990 -13.5000 114.000 2 45 -13.4000 114.300 TC 45 990 6 224
1978095S11120 1978 30 SI WA BRENDA 1978-04-08 13:00:00 TS -13.5276 114.009 50 990 bom main 530 530 P_____O__PP_P_ SH311978 -13.5802 113.933 45 0 -13.5000 114.000 30 50 990 3.50000 -13.4640 114.020 TC 45 990 -13.5744 113.941 2 45 -13.4667 114.228 TC 45 990 6 221
1978095S11120 1978 30 SI WA BRENDA 1978-04-08 15:00:00 TS -13.6761 113.882 main 554 554 P_____P__PP_P_ SH311978 -13.7500 113.820 45 0 -13.6333 113.859 30 50 990 -13.5925 113.870 TC 45 990 -13.7308 113.836 2 45 -13.6000 114.085 TC 45 990 6 218
1978095S11120 1978 30 SI WA BRENDA 1978-04-08 16:00:00 TS -13.7514 113.826 50 990 bom main 566 566 P_____O__PP_P_ SH311978 -13.8358 113.773 45 0 -13.7000 113.800 30 50 990 3.50000 -13.6588 113.804 TC 45 990 -13.8113 113.789 2 45 -13.6667 114.018 TC 45 990 5 212
1978095S11120 1978 30 SI WA BRENDA 1978-04-08 18:00:00 TS -13.8996 113.740 main 579 579 O_____P__OP_O_ jtwc_sh SH311978 -14.0000 113.700 45 0 -13.8254 113.728 30 50 990 -13.8000 113.700 TC 45 990 -13.9724 113.710 2 45 -13.8000 113.900 TC 45 990 5 208
1978095S11120 1978 30 SI WA BRENDA 1978-04-08 19:00:00 TS -13.9756 113.703 50 990 bom main 590 590 P_____O__PP_P_ SH311978 -14.0750 113.667 45 0 -13.9000 113.700 30 50 990 3.50000 -13.8829 113.661 TC 45 990 -14.0515 113.678 2 45 -13.8693 113.847 TC 45 990 5 201
1978095S11120 1978 30 SI WA BRENDA 1978-04-08 21:00:00 TS -14.1334 113.645 main 603 603 P_____P__PP_P_ SH311978 -14.2150 113.620 45 0 -14.1025 113.625 30 50 990 -14.0575 113.612 TC 45 990 -14.2027 113.629 2 45 -14.0075 113.763 TC 45 990 5 199
1978095S11120 1978 30 SI WA BRENDA 1978-04-08 22:00:00 TS -14.2086 113.627 50 990 bom main 614 614 P_____O__PP_P_ SH311978 -14.2800 113.607 45 0 -14.2000 113.600 30 50 990 3.50000 -14.1437 113.601 TC 45 990 -14.2733 113.614 2 45 -14.0746 113.732 TC 45 990 4 193
1978095S11120 1978 30 SI WA BRENDA 1978-04-09 00:00:00 TS -14.3411 113.616 main 625 625 O_____P__OO_O_ jtwc_sh SH311978 -14.4000 113.600 45 0 -14.3467 113.595 30 50 990 -14.3000 113.600 TC 45 990 -14.4000 113.600 2 45 -14.2000 113.700 TC 45 990 4 0
1978095S11120 1978 30 SI WA BRENDA 1978-04-09 01:00:00 TS -14.3999 113.617 50 990 bom main 636 636 P_____O__PP_P_ SH311978 -14.4610 113.603 45 0 -14.4000 113.600 30 50 990 3.50000 3.50000 -14.3640 113.603 TC 45 990 -14.4550 113.597 2 45 -14.2583 113.700 TC 45 990 3 0
1978095S11120 1978 30 SI WA BRENDA 1978-04-09 03:00:00 TS -14.5011 113.635 main 647 647 P_____P__PP_P_ SH311978 -14.5725 113.627 45 0 -14.4721 113.592 30 50 990 -14.4725 113.627 TC 45 990 -14.5521 113.608 2 45 -14.3650 113.727 TC 45 990 3 168
1978095S11120 1978 30 SI WA BRENDA 1978-04-09 04:00:00 TS -14.5448 113.653 50 990 bom main 645 645 P_____O__PP_P_ SH311978 -14.6212 113.648 45 0 -14.5000 113.600 30 50 990 3.50000 -14.5188 113.648 TC 45 990 -14.5945 113.623 2 45 -14.4133 113.750 TC 45 990 3 152
1978095S11120 1978 30 SI WA BRENDA 1978-04-09 06:00:00 TS -14.6223 113.705 main 656 656 O_____P__OP_O_ jtwc_sh SH311978 -14.7000 113.700 45 0 -14.5667 113.661 30 50 990 -14.6000 113.700 TC 45 990 -14.6674 113.667 2 45 -14.5000 113.800 TC 45 990 3 145
1978095S11120 1978 30 SI WA BRENDA 1978-04-09 07:00:00 TS -14.6576 113.731 50 990 bom main 667 666 P_____O__PP_P_ SH311978 -14.7307 113.725 45 0 -14.6000 113.700 30 50 990 3.50000 -14.6443 113.725 TC 45 990 -14.6982 113.697 2 45 -14.5417 113.811 TC 45 990 2 139
1978095S11120 1978 30 SI WA BRENDA 1978-04-09 09:00:00 TS -14.7164 113.787 main 666 666 P_____P__PP_P_ SH311978 -14.7725 113.785 45 0 -14.6667 113.767 30 50 990 -14.7225 113.785 TC 45 990 -14.7490 113.768 2 45 -14.6150 113.835 TC 45 990 2 134
1978095S11120 1978 30 SI WA BRENDA 1978-04-09 10:00:00 TS -14.7402 113.820 50 990 bom main 666 666 P_____O__PP_P_ SH311978 -14.7854 113.820 45 0 -14.7000 113.800 30 50 990 3.50000 -14.7546 113.820 TC 45 990 -14.7692 113.809 2 45 -14.6466 113.851 TC 45 990 2 120
1978095S11120 1978 30 SI WA BRENDA 1978-04-09 12:00:00 TS -14.7791 113.893 main 676 676 O_____P__OO_O_ jtwc_sh SH311978 -14.8000 113.900 45 0 -14.7746 113.859 30 50 990 -14.8000 113.900 TC 45 990 -14.8000 113.900 2 45 -14.7000 113.900 TC 45 990 2 115
1978095S11120 1978 30 SI WA BRENDA 1978-04-09 13:00:00 TS -14.7925 113.934 50 990 bom main 676 675 P_____O__PP_P_ SH311978 -14.8057 113.942 45 0 -14.8000 113.900 30 50 990 3.50000 -14.8114 113.944 TC 45 990 -14.8073 113.943 2 45 -14.7250 113.936 TC 45 990 3 99
1978095S11120 1978 30 SI WA BRENDA 1978-04-09 15:00:00 TS -14.8015 114.036 main 675 674 P_____P__PP_P_ SH311978 -14.8075 114.035 45 0 -14.8054 114.036 30 50 990 -14.8150 114.043 TC 45 990 -14.8084 114.038 2 45 -14.7650 114.027 TC 45 990 3 93
1978095S11120 1978 30 SI WA BRENDA 1978-04-09 16:00:00 TS -14.8010 114.090 50 990 bom main 674 673 P_____O__PP_P_ SH311978 -14.8054 114.087 45 0 -14.8000 114.100 30 50 990 3.50000 -14.8109 114.095 TC 45 990 -14.8044 114.091 2 45 -14.7800 114.081 TC 45 990 3 89
1978095S11120 1978 30 SI WA BRENDA 1978-04-09 18:00:00 TS -14.7987 114.195 main 673 673 O_____P__OP_O_ jtwc_sh SH311978 -14.8000 114.200 45 0 -14.8000 114.164 30 50 990 -14.8000 114.200 TC 45 990 -14.7925 114.205 2 45 -14.8000 114.200 TC 45 990 3 88
1978095S11120 1978 30 SI WA BRENDA 1978-04-09 19:00:00 TS -14.7957 114.248 50 990 bom main 673 672 P_____O__PP_P_ SH311978 -14.7947 114.258 45 0 -14.8000 114.200 30 50 990 3.50000 -14.7947 114.245 TC 45 990 -14.7866 114.266 2 45 -14.8031 114.261 TC 45 990 3 87
1978095S11120 1978 30 SI WA BRENDA 1978-04-09 21:00:00 TS -14.7892 114.370 main 672 672 P_____P__PP_P_ SH311978 -14.7850 114.385 45 0 -14.8000 114.328 30 50 990 -14.7850 114.335 TC 45 990 -14.7803 114.395 2 45 -14.8000 114.393 TC 45 990 4 88
1978095S11120 1978 30 SI WA BRENDA 1978-04-09 22:00:00 TS -14.7887 114.436 50 990 bom main 672 671 P_____O__PP_P_ SH311978 -14.7842 114.453 45 0 -14.8000 114.400 30 50 990 3.50000 -14.7842 114.384 TC 45 990 -14.7819 114.462 2 45 -14.7975 114.461 TC 45 990 4 93
1978095S11120 1978 30 SI WA BRENDA 1978-04-10 00:00:00 TS -14.7987 114.572 main 671 671 O_____P__OO_O_ jtwc_sh SH311978 -14.8000 114.600 45 0 -14.7921 114.533 30 50 990 -14.8000 114.500 TC 45 990 -14.8000 114.600 2 45 -14.8000 114.600 TC 45 990 4 97
1978095S11120 1978 30 SI WA BRENDA 1978-04-10 01:00:00 TS -14.8150 114.645 50 990 bom main 671 668 P_____O__PP_P_ SH311978 -14.8193 114.680 45 0 -14.8000 114.600 30 50 990 3.50000 3.50000 -14.8193 114.575 TC 45 990 -14.8262 114.671 2 44 -14.8057 114.664 TC 45 990 5 108
1978095S11120 1978 30 SI WA BRENDA 1978-04-10 03:00:00 TS -14.8691 114.797 main 668 665 P_____P__PP_P_ SH311978 -14.8775 114.850 45 0 -14.8612 114.725 30 50 990 -14.8775 114.742 TC 45 990 -14.8932 114.819 2 43 -14.8275 114.793 TC 45 990 5 112
1978095S11120 1978 30 SI WA BRENDA 1978-04-10 04:00:00 TS -14.9036 114.876 50 990 bom main 665 651 P_____O__PP_P_ SH311978 -14.9146 114.936 45 0 -14.9000 114.800 30 50 990 3.50000 -14.9146 114.830 TC 45 990 -14.9327 114.895 2 43 -14.8454 114.859 TC 45 990 5 115
1978095S11120 1978 30 SI WA BRENDA 1978-04-10 06:00:00 TS -14.9798 115.042 main 651 649 O_____P__OP_O_ jtwc_sh SH311978 -15.0000 115.100 45 0 -14.9588 115.002 30 50 990 -15.0000 115.000 TC 45 990 -15.0201 115.050 2 42 -14.9000 115.000 TC 45 990 5 117
1978095S11120 1978 30 SI WA BRENDA 1978-04-10 07:00:00 TS -15.0248 115.121 50 990 bom main 649 632 P_____O__PP_P_ SH311978 -15.0469 115.172 44 0 -15.0000 115.100 30 50 990 3.50000 -15.0469 115.072 TC 45 990 -15.0666 115.127 2 42 -14.9412 115.080 TC 45 990 5 125
1978095S11120 1978 30 SI WA BRENDA 1978-04-10 09:00:00 TS -15.1317 115.265 main 632 622 P_____P__PP_P_ SH311978 -15.1500 115.308 42 0 -15.1358 115.239 30 50 990 -15.1500 115.208 TC 45 991 -15.1619 115.281 2 41 -15.0425 115.250 TC 45 990 5 128
1978095S11120 1978 30 SI WA BRENDA 1978-04-10 10:00:00 TS -15.1856 115.335 50 991 bom main 622 606 P_____O__PP_P_ SH311978 -15.2024 115.372 41 0 -15.2000 115.300 30 50 991 3.50000 -15.2024 115.272 TC 45 991 -15.2093 115.356 2 40 -15.0971 115.336 TC 45 990 5 127
1978095S11120 1978 30 SI WA BRENDA 1978-04-10 12:00:00 TS -15.2787 115.472 main 606 606 O_____P__OO_O_ jtwc_sh SH311978 -15.3000 115.500 40 0 -15.2721 115.433 30 46 991 -15.3000 115.400 TC 45 992 -15.3000 115.500 2 40 -15.2000 115.500 TC 45 991 5 123
1978095S11120 1978 30 SI WA BRENDA 1978-04-10 13:00:00 TS -15.3159 115.541 45 992 bom main 606 591 P_____O__PP_P_ SH311978 -15.3390 115.569 40 0 -15.3000 115.500 30 45 992 3.00000 -15.3390 115.467 TC 44 992 -15.3391 115.566 2 39 -15.2390 115.575 TC 44 991 4 118
1978095S11120 1978 30 SI WA BRENDA 1978-04-10 15:00:00 TS -15.3853 115.676 main 591 591 P_____P__PP_P_ SH311978 -15.4075 115.708 40 0 -15.3667 115.633 30 45 992 -15.4075 115.600 TC 42 993 -15.4152 115.693 2 38 -15.3075 115.715 TC 42 992 4 118
1978095S11120 1978 30 SI WA BRENDA 1978-04-10 16:00:00 TS -15.4178 115.742 45 993 bom main 591 576 P_____O__PP_P_ SH311978 -15.4388 115.775 40 0 -15.4000 115.700 30 45 993 3.00000 -15.4387 115.667 TC 41 993 -15.4520 115.755 2 38 -15.3387 115.780 TC 41 992 4 117
1978095S11120 1978 30 SI WA BRENDA 1978-04-10 18:00:00 TS -15.4815 115.868 main 576 576 O_____P__OP_O_ jtwc_sh SH311978 -15.5000 115.900 40 0 -15.4667 115.833 30 45 993 -15.5000 115.800 TC 40 994 -15.5224 115.873 2 37 -15.4000 115.900 TC 40 993 4 119
1978095S11120 1978 30 SI WA BRENDA 1978-04-10 19:00:00 TS -15.5162 115.928 45 994 bom main 576 564 P_____O__PP_P_ SH311978 -15.5359 115.956 39 0 -15.5000 115.900 30 45 994 3.00000 -15.5360 115.869 TC 40 994 -15.5558 115.930 2 37 -15.4333 115.956 TC 40 993 4 121
1978095S11120 1978 30 SI WA BRENDA 1978-04-10 21:00:00 TS -15.5846 116.044 main 564 563 P_____P__PP_P_ SH311978 -15.6075 116.058 37 0 -15.5667 116.041 30 41 994 -15.6075 116.007 TC 40 994 -15.6184 116.040 2 36 -15.5000 116.058 TC 40 993 4 121
1978095S11120 1978 30 SI WA BRENDA 1978-04-10 22:00:00 TS -15.6174 116.098 40 995 bom main 563 550 P_____O__PP_P_ SH311978 -15.6412 116.105 36 0 -15.6000 116.100 30 40 995 3.00000 -15.6412 116.075 TC 40 994 -15.6473 116.094 2 35 -15.5333 116.105 TC 40 993 3 123
1978095S11120 1978 30 SI WA BRENDA 1978-04-11 00:00:00 TS -15.6778 116.194 main 550 550 O_____P__OO_O_ jtwc_sh SH311978 -15.7000 116.200 35 0 -15.6667 116.164 30 40 995 -15.7000 116.200 TC 40 995 -15.7000 116.200 2 35 -15.6000 116.200 TC 40 994 3 121
1978095S11120 1978 30 SI WA BRENDA 1978-04-11 01:00:00 TS -15.7046 116.243 40 995 bom main 550 538 P_____O__PP_P_ SH311978 -15.7224 116.250 34 0 -15.7000 116.200 30 40 995 3.00000 3.00000 -15.7224 116.256 TC 39 995 -15.7246 116.252 2 34 -15.6360 116.250 TC 40 994 3 117
1978095S11120 1978 30 SI WA BRENDA 1978-04-11 03:00:00 TS -15.7538 116.349 main 538 537 P_____P__PP_P_ SH311978 -15.7575 116.350 32 -1 -15.7746 116.336 30 36 995 -15.7575 116.358 TC 37 995 -15.7684 116.353 2 33 -15.7075 116.350 TC 40 994 3 114
1978095S11120 1978 30 SI WA BRENDA 1978-04-11 04:00:00 TS -15.7742 116.401 35 996 bom main 537 537 P_____O__PP_P_ SH311978 -15.7721 116.400 31 -1 -15.8000 116.400 30 35 996 3.00000 -15.7721 116.405 TC 36 995 -15.7878 116.403 2 33 -15.7412 116.400 TC 40 994 3 110
1978095S11120 1978 30 SI WA BRENDA 1978-04-11 06:00:00 TS -15.8046 116.494 main 537 537 O_____P__OP_O_ jtwc_sh SH311978 -15.8000 116.500 30 -1 -15.8054 116.464 30 35 996 -15.8000 116.500 TC 35 996 -15.8224 116.500 2 32 -15.8000 116.500 TC 40 995 3 110
1978095S11120 1978 30 SI WA BRENDA 1978-04-11 07:00:00 TS -15.8201 116.541 35 996 bom main 537 537 P_____O__PP_P_ SH311978 -15.8193 116.550 30 -1 -15.8000 116.500 30 35 996 3.00000 -15.8193 116.547 TC 35 996 -15.8378 116.549 2 32 -15.8250 116.547 TC 39 995 3 107
1978095S11120 1978 30 SI WA BRENDA 1978-04-11 09:00:00 TS -15.8491 116.645 main 537 524 P_____P__PP_P_ SH311978 -15.8575 116.650 30 -1 -15.7921 116.636 30 31 996 -15.8575 116.643 TC 35 996 -15.8652 116.647 2 31 -15.8650 116.643 TC 37 995 3 106
1978095S11120 1978 30 SI WA BRENDA 1978-04-11 10:00:00 TS -15.8635 116.697 30 997 bom main 524 521 P_____O__PP_P_ SH311978 -15.8746 116.700 30 -1 -15.8000 116.700 20 30 997 2.50000 -15.8745 116.692 TC 35 996 -15.8776 116.697 2 30 -15.8800 116.692 TC 36 995 3 108
1978095S11120 1978 30 SI WA BRENDA 1978-04-11 12:00:00 TS -15.8949 116.793 main 521 521 O_____P__OO_O_ jtwc_sh SH311978 -15.9000 116.800 30 -1 -15.8691 116.756 20 30 997 -15.9000 116.800 TC 35 997 -15.9000 116.800 1 30 -15.9000 116.800 TC 35 996 3 105
1978095S11120 1978 30 SI WA BRENDA 1978-04-11 13:00:00 TS -15.9028 116.849 30 997 bom main 521 516 P_____O__PP_P_ SH311978 -15.9031 116.847 30 -1 -15.9000 116.800 20 30 997 2.50000 -15.9031 116.866 TC 34 997 -15.9043 116.867 1 30 -15.9031 116.864 TC 35 996 4 92
1978095S11120 1978 30 SI WA BRENDA 1978-04-11 15:00:00 TS -15.9022 116.984 main 516 516 P_____P__PP_P_ SH311978 -15.9000 116.943 30 -1 -15.9055 117.005 20 30 997 -15.9000 117.008 TC 32 998 -15.9079 117.008 1 30 -15.9000 117.000 TC 35 997 4 89
1978095S11120 1978 30 SI WA BRENDA 1978-04-11 16:00:00 TS -15.8998 117.052 30 998 bom main 514 511 P_____O__PP_P_ SH311978 -15.8975 116.992 30 -1 -15.9000 117.100 20 30 998 2.50000 -15.8976 117.077 TC 31 998 -15.9088 117.080 1 30 -15.8975 117.069 TC 35 997 3 90
1978095S11120 1978 30 SI WA BRENDA 1978-04-11 18:00:00 TS -15.9021 117.166 main 511 511 O_____P__OP_O_ jtwc_sh SH311978 -15.9000 117.100 30 -1 -15.9000 117.178 20 30 998 -15.9000 117.200 TC 30 999 -15.9127 117.217 1 30 -15.9000 117.200 TC 35 998 3 92
1978095S11120 1978 30 SI WA BRENDA 1978-04-11 19:00:00 TS -15.9054 117.221 30 999 bom main 511 507 P_____O__PP_P_ SH311978 -15.9057 117.171 30 -1 -15.9000 117.200 20 30 999 2.50000 -15.9004 117.242 TC 30 999 -15.9173 117.281 1 30 -15.9031 117.258 TC 34 998 3 96
1978095S11120 1978 30 SI WA BRENDA 1978-04-11 21:00:00 TS -15.9193 117.328 main 507 503 P_____P__PP_P_ SH311978 -15.9276 117.322 30 -1 -15.8921 117.259 20 30 999 -15.9125 117.308 TC 30 1000 -15.9360 117.393 1 30 -15.9200 117.365 TC 32 999 3 101
1978095S11120 1978 30 SI WA BRENDA 1978-04-11 22:00:00 TS -15.9350 117.379 30 1000 bom main 503 488 P_____O__PP_P_ SH311978 -15.9455 117.393 30 -1 -15.9000 117.300 20 30 1000 2.50000 -15.9296 117.336 TC 30 1000 -15.9518 117.438 1 30 -15.9375 117.413 TC 31 999 3 118
1978095S11120 1978 30 SI WA BRENDA 1978-04-12 00:00:00 TS -15.9922 117.470 main 488 488 O_____P__OO_O_ jtwc_sh SH311978 -16.0000 117.500 30 -1 -15.9533 117.420 20 30 1000 -16.0000 117.400 TC 30 1001 -16.0000 117.500 1 30 -16.0000 117.500 TC 30 1000 3 128
1978095S11120 1978 30 SI WA BRENDA 1978-04-12 01:00:00 TS -16.0392 117.516 30 1001 bom main 488 474 P_____O__PP_P_ SH311978 -16.0359 117.531 30 -1 -16.0000 117.500 20 30 1001 2.50000 2.50000 -16.0684 117.463 TC 30 1001 -16.0430 117.521 1 30 -16.0522 117.549 TC 29 1000 4 143
1978095S11120 1978 30 SI WA BRENDA 1978-04-12 03:00:00 TS -16.1571 117.600 main 464 464 P_____P__PP_P_ SH311978 -16.1275 117.552 30 -1 -16.1121 117.726 20 30 1001 -16.2425 117.595 TC 30 1001 -16.1479 117.537 1 30 -16.1850 117.637 TC 27 1000 4 150
1978095S11120 1978 30 SI WA BRENDA 1978-04-12 04:00:00 TS -16.2272 117.624 30 1001 bom main 464 443 P_____O__PP_P_ SH311978 -16.1812 117.545 30 -1 -16.2000 117.800 20 30 1001 2.50000 -16.3353 117.650 TC 30 1001 -16.2073 117.533 1 30 -16.2583 117.670 TC 26 1000 5 0
1978095S11120 1978 30 SI WA BRENDA 1978-04-12 06:00:00 TS -16.3857 117.611 main 443 443 O_____P__OP_O_ jtwc_sh SH311978 -16.3000 117.500 30 -1 -16.4795 117.763 20 30 1001 -16.5000 117.700 TC 30 1001 -16.3346 117.500 1 30 -16.4000 117.700 TC 25 1001 5 189
1978095S11120 1978 30 SI WA BRENDA 1978-04-12 07:00:00 TS -16.4586 117.583 30 1001 bom main 432 426 P_____O__PP_P_ SH311978 -16.3662 117.472 30 -1 -16.6000 117.700 20 30 1001 2.50000 -16.5557 117.681 TC 29 1001 -16.4001 117.471 1 30 -16.4635 117.703 TC 25 1001 4 209
1978095S11120 1978 30 SI WA BRENDA 1978-04-12 09:00:00 TS -16.5754 117.498 main 426 426 P_____P__PP_P_ SH311978 -16.5075 117.388 30 -1 -16.6909 117.580 20 26 1001 -16.6374 117.575 TC 27 1001 -16.5290 117.388 1 30 -16.5799 117.668 TC 25 1001 4 221
1978095S11120 1978 30 SI WA BRENDA 1978-04-12 10:00:00 TS -16.6231 117.437 25 1002 bom main 430 420 P_____O__PP_P_ SH311978 -16.5770 117.332 30 -1 -16.7000 117.500 20 25 1002 2.00000 -16.6654 117.495 TC 26 1001 -16.5902 117.333 1 30 -16.6290 117.628 TC 25 1001 5 239
1978095S11120 1978 30 SI WA BRENDA 1978-04-12 12:00:00 TS -16.7009 117.284 main 422 422 O_____P__OO_O_ jtwc_sh SH311978 -16.7000 117.200 30 -1 -16.7054 117.305 20 25 1002 -16.7000 117.300 TC 25 1002 -16.7000 117.200 1 30 -16.7000 117.500 TC 25 1001 5 246
1978095S11120 1978 30 SI WA BRENDA 1978-04-12 13:00:00 TS -16.7266 117.200 25 1002 bom main 424 416 P_____O__PP_P_ SH311978 -16.7473 117.136 30 -1 -16.7000 117.200 20 25 1002 2.00000 -16.7062 117.198 TC 25 1002 -16.7466 117.121 1 29 -16.7119 117.409 TC 25 1001 5 257
1978095S11120 1978 30 SI WA BRENDA 1978-04-12 15:00:00 TS -16.7627 117.011 main 419 419 P_____P__PP_P_ SH311978 -16.8224 116.987 30 -1 -16.7000 117.008 20 25 1002 -16.7001 116.965 TC 25 1002 -16.8236 116.941 1 28 -16.7076 117.180 TC 25 1001 6 260
1978095S11120 1978 30 SI WA BRENDA 1978-04-12 16:00:00 TS -16.7758 116.906 25 1002 bom main 422 422 P_____O__PP_P_ SH311978 -16.8520 116.901 30 -1 -16.7000 116.900 20 25 1002 2.00000 -16.6951 116.842 TC 25 1002 -16.8549 116.841 1 28 -16.7006 117.052 TC 25 1001 6 263
1978095S11120 1978 30 SI WA BRENDA 1978-04-12 18:00:00 TS -16.7997 116.676 main 425 425 O_____P__OP_O_ jtwc_sh SH311978 -16.9000 116.700 30 -1 -16.6921 116.631 20 25 1002 -16.7000 116.600 TC 25 1003 -16.9058 116.625 1 27 -16.7000 116.800 TC 25 1002 7 263
1978095S11120 1978 30 SI WA BRENDA 1978-04-12 19:00:00 TS -16.8179 116.563 25 1003 bom main 425 425 P_____O__PP_P_ SH311978 -16.9201 116.584 29 -1 -16.7000 116.500 20 25 1003 2.00000 -16.7192 116.500 TC 24 1003 -16.9263 116.511 1 27 -16.7218 116.700 TC 25 1002 6 261
1978095S11120 1978 30 SI WA BRENDA 1978-04-12 21:00:00 TS -16.8511 116.343 main 416 416 P_____P__PP_P_ SH311978 -16.9552 116.325 27 -1 -16.7533 116.295 20 25 1003 -16.7774 116.307 TC 22 1003 -16.9601 116.272 1 26 -16.7849 116.508 TC 25 1002 6 261
1978095S11120 1978 30 SI WA BRENDA 1978-04-12 22:00:00 TS -16.8655 116.240 25 1003 bom main 417 417 P_____O__PP_P_ SH311978 -16.9708 116.186 26 -1 -16.8000 116.200 20 25 1003 2.00000 -16.8144 116.210 TC 21 1003 -16.9743 116.149 1 25 -16.8223 116.410 TC 25 1002 6 255
1978095S11120 1978 30 SI WA BRENDA 1978-04-13 00:00:00 TS -16.9274 116.035 main 420 409 O_____P__OO_O_ jtwc_sh SH311978 -17.0000 115.900 25 -1 -16.9279 116.008 20 25 1003 -16.9000 116.000 TC 20 1004 -17.0000 115.900 1 25 -16.9000 116.200 TC 25 1003 6 251
1978095S11120 1978 30 SI WA BRENDA 1978-04-13 01:00:00 TS -16.9609 115.956 25 1004 bom main 409 405 ______O__P__P_ SH311978 -1 -17.0000 115.900 20 25 1004 1.50000 -16.9495 115.883 TC 20 1004 1 -16.9333 116.083 TC 24 1003 7 246
1978095S11120 1978 30 SI WA BRENDA 1978-04-13 03:00:00 TS -17.0688 115.702 main 405 405 ______P__P__P_ SH311978 -1 -17.1491 115.647 20 25 1004 -17.0574 115.630 TC 20 1004 1 -16.9999 115.830 TC 22 1003 8 248
1978095S11120 1978 30 SI WA BRENDA 1978-04-13 04:00:00 TS -17.1145 115.562 25 1004 bom main 408 404 ______O__P__P_ SH311978 -1 -17.2000 115.500 20 25 1004 1.50000 -17.1103 115.493 TC 20 1004 1 -17.0332 115.693 TC 21 1003 9 257
1978095S11120 1978 30 SI WA BRENDA 1978-04-13 06:00:00 TS -17.1677 115.257 main 407 407 ______P__O__O_ -1 -17.2030 115.172 20 25 1004 -17.2000 115.200 TC 20 1004 1 -17.1000 115.400 TC 20 1004 9 261
1978095S11120 1978 30 SI WA BRENDA 1978-04-13 07:00:00 TS -17.1880 115.096 25 1004 bom main 415 415 ______O__P__P_ -1 -17.2000 115.000 20 25 1004 1.50000 -17.2281 115.045 TC 20 1004 1 -17.1359 115.245 TC 20 1004 10 260
1978095S11120 1978 30 SI WA BRENDA 1978-04-13 09:00:00 TS -17.2472 114.766 main 429 424 ______P__P__P_ -1 -17.2691 114.667 20 25 1004 -17.2650 114.715 TC 20 1004 1 -17.2075 114.915 TC 20 1004 10 260
1978095S11120 1978 30 SI WA BRENDA 1978-04-13 10:00:00 TS -17.2729 114.596 25 1004 bom main 430 430 ______O__P__P_ -1 -17.3000 114.500 20 25 1004 1.50000 -17.2775 114.544 TC 20 1004 1 -17.2412 114.744 TC 20 1004 10 264
1978095S11120 1978 30 SI WA BRENDA 1978-04-13 12:00:00 TS -17.3012 114.256 main 447 447 ______P__O__O_ -1 -17.3035 114.167 20 25 1004 -17.3000 114.200 TC 20 1004 -17.3000 114.400 TC 20 1004 10 265
1978095S11120 1978 30 SI WA BRENDA 1978-04-13 13:00:00 TS -17.3129 114.091 25 1004 bom main 459 459 ______O__P__P_ -1 -17.3000 114.000 20 25 1004 1.50000 -17.3165 114.039 TC 20 1004 -17.3223 114.236 TC 20 1004 9 265
1978095S11120 1978 30 SI WA BRENDA 1978-04-13 15:00:00 TS -17.3432 113.766 main 475 471 ______P__P__P_ -1 -17.3224 113.676 20 23 1004 -17.3498 113.715 TC 20 1004 -17.3573 113.907 TC 20 1004 10 264
1978095S11120 1978 30 SI WA BRENDA 1978-04-13 18:00:00 TS -17.3932 113.259 main 495 495 ______P__O__O_ -1 -17.3796 113.178 20 20 1004 -17.4000 113.200 TC 20 1005 -17.4000 113.400 TC 20 1004 10 264
1978095S11120 1978 30 SI WA BRENDA 1978-04-13 19:00:00 TS -17.4096 113.071 20 1005 bom main 507 507 ______O__P__P_ -1 -17.4000 113.000 20 20 1005 1.00000 -17.4168 113.014 TC 19 1005 -17.4151 113.224 TC 20 1004 11 265
1978095S11120 1978 30 SI WA BRENDA 1978-04-13 21:00:00 TS -17.4440 112.689 main 521 513 ______P__P__P_ -1 -17.4370 112.620 20 20 1005 -17.4505 112.620 TC 17 1005 -17.4479 112.860 TC 20 1004 11 265
1978095S11120 1978 30 SI WA BRENDA 1978-04-14 00:00:00 TS -17.4926 112.079 main 530 530 ______P__O__O_ -1 -17.4851 112.009 20 20 1005 -17.5000 112.000 TC 15 1006 -17.5000 112.300 TC 20 1005 13 266
1978095S11120 1978 30 SI WA BRENDA 1978-04-14 01:00:00 NR -17.5000 111.800 20 1006 bom main 543 ______O_______ -1 -17.5000 111.800 20 20 1006 1.00000 TC TC 16 268

About IBTrACS Database

This database is a web-friendly format of International Best Track Archive for Climate Stewardship (IBTrACS), a global best track data archive curated by NOAA dating back to 1842.

Updated: 2021-11-26